sensor_id;sensor_type;location;lat;lon;timestamp;P1;durP1;ratioP1;P2;durP2;ratioP2
6821;SDS011;3449;48.728;8.968;2022-11-15T00:01:33;4.27;;;2.90;;
6821;SDS011;3449;48.728;8.968;2022-11-15T00:04:02;7.30;;;3.30;;
6821;SDS011;3449;48.728;8.968;2022-11-15T00:06:30;4.10;;;3.00;;
6821;SDS011;3449;48.728;8.968;2022-11-15T00:08:58;4.40;;;3.20;;
6821;SDS011;3449;48.728;8.968;2022-11-15T00:11:25;6.77;;;3.80;;
6821;SDS011;3449;48.728;8.968;2022-11-15T00:13:54;6.80;;;2.80;;
6821;SDS011;3449;48.728;8.968;2022-11-15T00:16:21;3.07;;;2.43;;
6821;SDS011;3449;48.728;8.968;2022-11-15T00:18:49;4.30;;;2.90;;
6821;SDS011;3449;48.728;8.968;2022-11-15T00:21:16;6.93;;;3.10;;
6821;SDS011;3449;48.728;8.968;2022-11-15T00:23:45;5.30;;;3.23;;
6821;SDS011;3449;48.728;8.968;2022-11-15T00:26:12;5.27;;;3.23;;
6821;SDS011;3449;48.728;8.968;2022-11-15T00:28:40;3.23;;;2.40;;
6821;SDS011;3449;48.728;8.968;2022-11-15T00:31:09;4.73;;;2.90;;
6821;SDS011;3449;48.728;8.968;2022-11-15T00:33:38;4.73;;;2.80;;
6821;SDS011;3449;48.728;8.968;2022-11-15T00:36:06;13.40;;;4.43;;
6821;SDS011;3449;48.728;8.968;2022-11-15T00:38:37;11.30;;;4.47;;
6821;SDS011;3449;48.728;8.968;2022-11-15T00:41:07;7.47;;;4.27;;
6821;SDS011;3449;48.728;8.968;2022-11-15T00:43:34;9.40;;;3.13;;
6821;SDS011;3449;48.728;8.968;2022-11-15T00:46:01;5.13;;;3.17;;
6821;SDS011;3449;48.728;8.968;2022-11-15T00:48:28;4.13;;;2.47;;
6821;SDS011;3449;48.728;8.968;2022-11-15T00:50:56;7.37;;;2.60;;
6821;SDS011;3449;48.728;8.968;2022-11-15T00:53:23;6.10;;;2.80;;
6821;SDS011;3449;48.728;8.968;2022-11-15T00:55:50;5.43;;;2.80;;
6821;SDS011;3449;48.728;8.968;2022-11-15T00:58:18;5.40;;;3.20;;
6821;SDS011;3449;48.728;8.968;2022-11-15T01:00:45;6.13;;;2.90;;
6821;SDS011;3449;48.728;8.968;2022-11-15T01:03:12;6.80;;;3.13;;
6821;SDS011;3449;48.728;8.968;2022-11-15T01:05:40;3.90;;;2.23;;
6821;SDS011;3449;48.728;8.968;2022-11-15T01:08:10;5.30;;;2.90;;
6821;SDS011;3449;48.728;8.968;2022-11-15T01:10:38;5.47;;;2.90;;
6821;SDS011;3449;48.728;8.968;2022-11-15T01:13:05;6.57;;;3.30;;
6821;SDS011;3449;48.728;8.968;2022-11-15T01:15:34;3.07;;;2.50;;
6821;SDS011;3449;48.728;8.968;2022-11-15T01:18:04;7.50;;;2.47;;
6821;SDS011;3449;48.728;8.968;2022-11-15T01:20:31;3.83;;;2.13;;
6821;SDS011;3449;48.728;8.968;2022-11-15T01:22:58;2.93;;;1.97;;
6821;SDS011;3449;48.728;8.968;2022-11-15T01:25:25;4.03;;;2.70;;
6821;SDS011;3449;48.728;8.968;2022-11-15T01:27:52;4.67;;;2.47;;
6821;SDS011;3449;48.728;8.968;2022-11-15T01:30:19;4.50;;;2.50;;
6821;SDS011;3449;48.728;8.968;2022-11-15T01:32:47;3.97;;;2.03;;
6821;SDS011;3449;48.728;8.968;2022-11-15T01:35:14;4.23;;;2.33;;
6821;SDS011;3449;48.728;8.968;2022-11-15T01:37:41;5.70;;;2.47;;
6821;SDS011;3449;48.728;8.968;2022-11-15T01:40:08;3.87;;;3.00;;
6821;SDS011;3449;48.728;8.968;2022-11-15T01:42:35;6.00;;;2.50;;
6821;SDS011;3449;48.728;8.968;2022-11-15T01:45:02;5.60;;;2.47;;
6821;SDS011;3449;48.728;8.968;2022-11-15T01:47:31;4.40;;;2.60;;
6821;SDS011;3449;48.728;8.968;2022-11-15T01:50:03;6.23;;;2.10;;
6821;SDS011;3449;48.728;8.968;2022-11-15T01:52:32;6.70;;;2.10;;
6821;SDS011;3449;48.728;8.968;2022-11-15T01:55:02;4.80;;;3.13;;
6821;SDS011;3449;48.728;8.968;2022-11-15T01:57:32;3.43;;;2.10;;
6821;SDS011;3449;48.728;8.968;2022-11-15T02:00:00;5.10;;;2.27;;
6821;SDS011;3449;48.728;8.968;2022-11-15T02:02:29;2.10;;;1.90;;
6821;SDS011;3449;48.728;8.968;2022-11-15T02:04:56;2.67;;;2.30;;
6821;SDS011;3449;48.728;8.968;2022-11-15T02:07:25;5.03;;;2.33;;
6821;SDS011;3449;48.728;8.968;2022-11-15T02:09:52;2.80;;;2.03;;
6821;SDS011;3449;48.728;8.968;2022-11-15T02:12:20;2.57;;;2.37;;
6821;SDS011;3449;48.728;8.968;2022-11-15T02:14:50;4.60;;;2.90;;
6821;SDS011;3449;48.728;8.968;2022-11-15T02:17:32;8.03;;;4.57;;
6821;SDS011;3449;48.728;8.968;2022-11-15T02:23:20;5.93;;;4.53;;
6821;SDS011;3449;48.728;8.968;2022-11-15T02:29:32;9.03;;;4.17;;
6821;SDS011;3449;48.728;8.968;2022-11-15T02:32:18;6.03;;;3.00;;
6821;SDS011;3449;48.728;8.968;2022-11-15T02:34:50;3.23;;;2.93;;
6821;SDS011;3449;48.728;8.968;2022-11-15T02:37:22;11.27;;;7.60;;
6821;SDS011;3449;48.728;8.968;2022-11-15T02:39:58;5.63;;;3.90;;
6821;SDS011;3449;48.728;8.968;2022-11-15T02:42:32;3.97;;;3.20;;
6821;SDS011;3449;48.728;8.968;2022-11-15T02:45:21;5.80;;;3.43;;
6821;SDS011;3449;48.728;8.968;2022-11-15T02:47:54;5.23;;;3.10;;
6821;SDS011;3449;48.728;8.968;2022-11-15T02:50:26;4.77;;;2.73;;
6821;SDS011;3449;48.728;8.968;2022-11-15T02:52:55;4.40;;;2.60;;
6821;SDS011;3449;48.728;8.968;2022-11-15T02:55:26;4.20;;;3.10;;
6821;SDS011;3449;48.728;8.968;2022-11-15T02:57:57;3.07;;;2.00;;
6821;SDS011;3449;48.728;8.968;2022-11-15T03:00:38;9.17;;;2.33;;
6821;SDS011;3449;48.728;8.968;2022-11-15T03:03:17;7.60;;;2.60;;
6821;SDS011;3449;48.728;8.968;2022-11-15T03:06:01;4.70;;;2.00;;
6821;SDS011;3449;48.728;8.968;2022-11-15T03:08:37;4.20;;;2.17;;
6821;SDS011;3449;48.728;8.968;2022-11-15T03:11:13;4.80;;;2.90;;
6821;SDS011;3449;48.728;8.968;2022-11-15T03:13:43;5.20;;;2.87;;
6821;SDS011;3449;48.728;8.968;2022-11-15T03:16:15;3.20;;;2.20;;
6821;SDS011;3449;48.728;8.968;2022-11-15T03:18:49;3.50;;;1.83;;
6821;SDS011;3449;48.728;8.968;2022-11-15T03:21:21;4.83;;;2.77;;
6821;SDS011;3449;48.728;8.968;2022-11-15T03:23:49;6.47;;;3.10;;
6821;SDS011;3449;48.728;8.968;2022-11-15T03:26:18;3.23;;;2.80;;
6821;SDS011;3449;48.728;8.968;2022-11-15T03:28:48;2.37;;;2.17;;
6821;SDS011;3449;48.728;8.968;2022-11-15T03:31:19;5.03;;;3.17;;
6821;SDS011;3449;48.728;8.968;2022-11-15T03:34:08;9.47;;;3.30;;
6821;SDS011;3449;48.728;8.968;2022-11-15T03:36:41;7.47;;;3.40;;
6821;SDS011;3449;48.728;8.968;2022-11-15T03:39:10;3.53;;;2.23;;
6821;SDS011;3449;48.728;8.968;2022-11-15T03:41:39;2.60;;;1.80;;
6821;SDS011;3449;48.728;8.968;2022-11-15T03:44:14;4.57;;;2.50;;
6821;SDS011;3449;48.728;8.968;2022-11-15T03:46:46;4.70;;;2.20;;
6821;SDS011;3449;48.728;8.968;2022-11-15T03:49:19;5.23;;;2.63;;
6821;SDS011;3449;48.728;8.968;2022-11-15T03:51:50;2.60;;;2.10;;
6821;SDS011;3449;48.728;8.968;2022-11-15T03:54:17;6.17;;;2.60;;
6821;SDS011;3449;48.728;8.968;2022-11-15T03:56:44;3.73;;;2.23;;
6821;SDS011;3449;48.728;8.968;2022-11-15T03:59:11;7.10;;;2.83;;
6821;SDS011;3449;48.728;8.968;2022-11-15T04:01:38;5.70;;;2.10;;
6821;SDS011;3449;48.728;8.968;2022-11-15T04:04:05;4.60;;;2.17;;
6821;SDS011;3449;48.728;8.968;2022-11-15T04:06:33;2.70;;;1.90;;
6821;SDS011;3449;48.728;8.968;2022-11-15T04:09:00;8.93;;;2.80;;
6821;SDS011;3449;48.728;8.968;2022-11-15T04:11:27;3.70;;;2.03;;
6821;SDS011;3449;48.728;8.968;2022-11-15T04:13:54;7.60;;;2.30;;
6821;SDS011;3449;48.728;8.968;2022-11-15T04:16:21;7.27;;;3.13;;
6821;SDS011;3449;48.728;8.968;2022-11-15T04:18:48;4.60;;;3.23;;
6821;SDS011;3449;48.728;8.968;2022-11-15T04:21:36;3.60;;;2.83;;
6821;SDS011;3449;48.728;8.968;2022-11-15T04:24:21;6.63;;;2.43;;
6821;SDS011;3449;48.728;8.968;2022-11-15T04:26:48;5.83;;;2.40;;
6821;SDS011;3449;48.728;8.968;2022-11-15T04:29:15;1.90;;;1.73;;
6821;SDS011;3449;48.728;8.968;2022-11-15T04:32:00;4.27;;;2.40;;
6821;SDS011;3449;48.728;8.968;2022-11-15T04:34:27;4.50;;;2.87;;
6821;SDS011;3449;48.728;8.968;2022-11-15T04:36:55;6.60;;;3.60;;
6821;SDS011;3449;48.728;8.968;2022-11-15T04:39:41;3.07;;;2.30;;
6821;SDS011;3449;48.728;8.968;2022-11-15T04:42:09;6.17;;;2.80;;
6821;SDS011;3449;48.728;8.968;2022-11-15T04:44:36;3.67;;;2.10;;
6821;SDS011;3449;48.728;8.968;2022-11-15T04:47:03;2.83;;;2.27;;
6821;SDS011;3449;48.728;8.968;2022-11-15T04:49:30;4.13;;;2.33;;
6821;SDS011;3449;48.728;8.968;2022-11-15T04:51:59;4.10;;;2.23;;
6821;SDS011;3449;48.728;8.968;2022-11-15T04:54:26;8.20;;;2.43;;
6821;SDS011;3449;48.728;8.968;2022-11-15T04:56:52;2.90;;;2.27;;
6821;SDS011;3449;48.728;8.968;2022-11-15T04:59:19;5.27;;;2.37;;
6821;SDS011;3449;48.728;8.968;2022-11-15T05:01:46;3.30;;;2.20;;
6821;SDS011;3449;48.728;8.968;2022-11-15T05:04:13;3.13;;;1.93;;
6821;SDS011;3449;48.728;8.968;2022-11-15T05:06:45;4.70;;;2.73;;
6821;SDS011;3449;48.728;8.968;2022-11-15T05:09:14;7.63;;;2.73;;
6821;SDS011;3449;48.728;8.968;2022-11-15T05:11:42;3.40;;;2.73;;
6821;SDS011;3449;48.728;8.968;2022-11-15T05:14:09;2.53;;;1.93;;
6821;SDS011;3449;48.728;8.968;2022-11-15T05:16:38;3.53;;;2.13;;
6821;SDS011;3449;48.728;8.968;2022-11-15T05:19:05;2.93;;;2.10;;
6821;SDS011;3449;48.728;8.968;2022-11-15T05:21:32;4.10;;;2.40;;
6821;SDS011;3449;48.728;8.968;2022-11-15T05:24:00;3.20;;;2.30;;
6821;SDS011;3449;48.728;8.968;2022-11-15T05:26:29;5.60;;;2.80;;
6821;SDS011;3449;48.728;8.968;2022-11-15T05:28:56;2.90;;;2.40;;
6821;SDS011;3449;48.728;8.968;2022-11-15T05:31:24;2.70;;;2.47;;
6821;SDS011;3449;48.728;8.968;2022-11-15T05:33:52;5.50;;;3.00;;
6821;SDS011;3449;48.728;8.968;2022-11-15T05:36:22;4.03;;;2.47;;
6821;SDS011;3449;48.728;8.968;2022-11-15T05:38:54;8.20;;;2.83;;
6821;SDS011;3449;48.728;8.968;2022-11-15T05:41:22;2.73;;;2.50;;
6821;SDS011;3449;48.728;8.968;2022-11-15T05:43:57;5.37;;;2.70;;
6821;SDS011;3449;48.728;8.968;2022-11-15T05:46:26;5.40;;;2.77;;
6821;SDS011;3449;48.728;8.968;2022-11-15T05:48:53;5.10;;;2.43;;
6821;SDS011;3449;48.728;8.968;2022-11-15T05:51:23;5.10;;;3.17;;
6821;SDS011;3449;48.728;8.968;2022-11-15T05:53:50;9.00;;;5.67;;
6821;SDS011;3449;48.728;8.968;2022-11-15T05:56:18;14.53;;;3.80;;
6821;SDS011;3449;48.728;8.968;2022-11-15T05:58:45;8.47;;;4.73;;
6821;SDS011;3449;48.728;8.968;2022-11-15T06:01:14;11.63;;;4.27;;
6821;SDS011;3449;48.728;8.968;2022-11-15T06:03:40;12.07;;;4.17;;
6821;SDS011;3449;48.728;8.968;2022-11-15T06:06:07;4.70;;;2.70;;
6821;SDS011;3449;48.728;8.968;2022-11-15T06:08:34;8.10;;;3.43;;
6821;SDS011;3449;48.728;8.968;2022-11-15T06:11:04;4.60;;;3.47;;
6821;SDS011;3449;48.728;8.968;2022-11-15T06:13:32;5.27;;;3.90;;
6821;SDS011;3449;48.728;8.968;2022-11-15T06:15:59;7.43;;;3.13;;
6821;SDS011;3449;48.728;8.968;2022-11-15T06:18:28;9.07;;;3.40;;
6821;SDS011;3449;48.728;8.968;2022-11-15T06:20:59;5.00;;;3.40;;
6821;SDS011;3449;48.728;8.968;2022-11-15T06:23:26;3.27;;;2.97;;
6821;SDS011;3449;48.728;8.968;2022-11-15T06:25:57;6.13;;;4.00;;
6821;SDS011;3449;48.728;8.968;2022-11-15T06:28:24;15.00;;;6.00;;
6821;SDS011;3449;48.728;8.968;2022-11-15T06:30:51;5.90;;;4.23;;
6821;SDS011;3449;48.728;8.968;2022-11-15T06:33:17;8.90;;;4.33;;
6821;SDS011;3449;48.728;8.968;2022-11-15T06:35:46;8.83;;;3.83;;
6821;SDS011;3449;48.728;8.968;2022-11-15T06:38:13;7.63;;;3.47;;
6821;SDS011;3449;48.728;8.968;2022-11-15T06:40:39;3.97;;;3.00;;
6821;SDS011;3449;48.728;8.968;2022-11-15T06:43:06;3.97;;;2.50;;
6821;SDS011;3449;48.728;8.968;2022-11-15T06:45:33;8.13;;;3.33;;
6821;SDS011;3449;48.728;8.968;2022-11-15T06:48:00;7.60;;;3.73;;
6821;SDS011;3449;48.728;8.968;2022-11-15T06:50:27;5.37;;;3.07;;
6821;SDS011;3449;48.728;8.968;2022-11-15T06:52:55;8.30;;;3.23;;
6821;SDS011;3449;48.728;8.968;2022-11-15T06:55:27;15.50;;;4.23;;
6821;SDS011;3449;48.728;8.968;2022-11-15T06:57:54;6.20;;;3.23;;
6821;SDS011;3449;48.728;8.968;2022-11-15T07:00:21;7.97;;;4.17;;
6821;SDS011;3449;48.728;8.968;2022-11-15T07:02:48;8.87;;;4.70;;
6821;SDS011;3449;48.728;8.968;2022-11-15T07:05:15;10.57;;;5.27;;
6821;SDS011;3449;48.728;8.968;2022-11-15T07:07:42;9.60;;;4.63;;
6821;SDS011;3449;48.728;8.968;2022-11-15T07:10:10;8.10;;;3.87;;
6821;SDS011;3449;48.728;8.968;2022-11-15T07:12:37;10.80;;;7.43;;
6821;SDS011;3449;48.728;8.968;2022-11-15T07:15:05;17.40;;;8.00;;
6821;SDS011;3449;48.728;8.968;2022-11-15T07:17:32;10.73;;;7.70;;
6821;SDS011;3449;48.728;8.968;2022-11-15T07:19:59;11.93;;;5.00;;
6821;SDS011;3449;48.728;8.968;2022-11-15T07:22:26;11.37;;;6.77;;
6821;SDS011;3449;48.728;8.968;2022-11-15T07:24:53;7.97;;;4.63;;
6821;SDS011;3449;48.728;8.968;2022-11-15T07:27:21;6.63;;;3.10;;
6821;SDS011;3449;48.728;8.968;2022-11-15T07:29:48;8.07;;;3.30;;
6821;SDS011;3449;48.728;8.968;2022-11-15T07:32:15;4.33;;;3.40;;
6821;SDS011;3449;48.728;8.968;2022-11-15T07:34:42;6.33;;;4.00;;
6821;SDS011;3449;48.728;8.968;2022-11-15T07:37:11;5.30;;;3.13;;
6821;SDS011;3449;48.728;8.968;2022-11-15T07:39:38;4.20;;;3.53;;
6821;SDS011;3449;48.728;8.968;2022-11-15T07:42:05;4.60;;;3.30;;
6821;SDS011;3449;48.728;8.968;2022-11-15T07:44:51;4.90;;;3.73;;
6821;SDS011;3449;48.728;8.968;2022-11-15T07:47:18;5.53;;;4.13;;
6821;SDS011;3449;48.728;8.968;2022-11-15T07:49:45;11.40;;;4.10;;
6821;SDS011;3449;48.728;8.968;2022-11-15T07:52:12;4.93;;;3.50;;
6821;SDS011;3449;48.728;8.968;2022-11-15T07:54:39;7.27;;;3.77;;
6821;SDS011;3449;48.728;8.968;2022-11-15T07:57:06;6.20;;;3.27;;
6821;SDS011;3449;48.728;8.968;2022-11-15T07:59:34;8.80;;;2.93;;
6821;SDS011;3449;48.728;8.968;2022-11-15T08:02:02;7.93;;;2.70;;
6821;SDS011;3449;48.728;8.968;2022-11-15T08:04:29;8.10;;;4.30;;
6821;SDS011;3449;48.728;8.968;2022-11-15T08:06:56;12.50;;;4.07;;
6821;SDS011;3449;48.728;8.968;2022-11-15T08:09:23;7.77;;;3.07;;
6821;SDS011;3449;48.728;8.968;2022-11-15T08:11:50;6.93;;;3.10;;
6821;SDS011;3449;48.728;8.968;2022-11-15T08:14:17;7.10;;;2.73;;
6821;SDS011;3449;48.728;8.968;2022-11-15T08:16:47;5.30;;;3.40;;
6821;SDS011;3449;48.728;8.968;2022-11-15T08:19:15;13.80;;;6.27;;
6821;SDS011;3449;48.728;8.968;2022-11-15T08:21:42;18.17;;;8.13;;
6821;SDS011;3449;48.728;8.968;2022-11-15T08:24:09;19.17;;;7.60;;
6821;SDS011;3449;48.728;8.968;2022-11-15T08:26:37;13.03;;;6.73;;
6821;SDS011;3449;48.728;8.968;2022-11-15T08:29:04;10.07;;;4.97;;
6821;SDS011;3449;48.728;8.968;2022-11-15T08:31:32;8.53;;;3.00;;
6821;SDS011;3449;48.728;8.968;2022-11-15T08:33:59;7.23;;;2.20;;
6821;SDS011;3449;48.728;8.968;2022-11-15T08:36:28;5.50;;;1.90;;
6821;SDS011;3449;48.728;8.968;2022-11-15T08:38:55;8.70;;;2.43;;
6821;SDS011;3449;48.728;8.968;2022-11-15T08:41:23;3.60;;;2.10;;
6821;SDS011;3449;48.728;8.968;2022-11-15T08:43:52;3.53;;;1.90;;
6821;SDS011;3449;48.728;8.968;2022-11-15T08:46:19;5.17;;;2.50;;
6821;SDS011;3449;48.728;8.968;2022-11-15T08:48:46;11.00;;;3.10;;
6821;SDS011;3449;48.728;8.968;2022-11-15T08:51:13;5.13;;;3.17;;
6821;SDS011;3449;48.728;8.968;2022-11-15T08:53:42;2.20;;;2.03;;
6821;SDS011;3449;48.728;8.968;2022-11-15T08:56:09;9.43;;;2.50;;
6821;SDS011;3449;48.728;8.968;2022-11-15T08:58:38;2.30;;;2.00;;
6821;SDS011;3449;48.728;8.968;2022-11-15T09:01:04;6.37;;;2.13;;
6821;SDS011;3449;48.728;8.968;2022-11-15T09:03:31;4.80;;;2.70;;
6821;SDS011;3449;48.728;8.968;2022-11-15T09:05:59;2.70;;;2.00;;
6821;SDS011;3449;48.728;8.968;2022-11-15T09:08:29;3.30;;;2.97;;
6821;SDS011;3449;48.728;8.968;2022-11-15T09:10:58;2.47;;;1.90;;
6821;SDS011;3449;48.728;8.968;2022-11-15T09:13:28;3.13;;;2.33;;
6821;SDS011;3449;48.728;8.968;2022-11-15T09:15:57;3.63;;;2.40;;
6821;SDS011;3449;48.728;8.968;2022-11-15T09:18:24;4.73;;;2.10;;
6821;SDS011;3449;48.728;8.968;2022-11-15T09:20:51;7.10;;;2.30;;
6821;SDS011;3449;48.728;8.968;2022-11-15T09:23:21;5.13;;;2.50;;
6821;SDS011;3449;48.728;8.968;2022-11-15T09:25:49;4.67;;;2.47;;
6821;SDS011;3449;48.728;8.968;2022-11-15T09:28:17;4.97;;;2.80;;
6821;SDS011;3449;48.728;8.968;2022-11-15T09:30:44;3.47;;;2.80;;
6821;SDS011;3449;48.728;8.968;2022-11-15T09:33:12;2.70;;;2.30;;
6821;SDS011;3449;48.728;8.968;2022-11-15T09:35:39;2.70;;;1.90;;
6821;SDS011;3449;48.728;8.968;2022-11-15T09:38:07;5.20;;;2.23;;
6821;SDS011;3449;48.728;8.968;2022-11-15T09:40:35;5.87;;;2.90;;
6821;SDS011;3449;48.728;8.968;2022-11-15T09:43:11;15.40;;;2.33;;
6821;SDS011;3449;48.728;8.968;2022-11-15T09:45:54;10.90;;;2.50;;
6821;SDS011;3449;48.728;8.968;2022-11-15T09:48:33;6.80;;;3.07;;
6821;SDS011;3449;48.728;8.968;2022-11-15T09:51:17;13.00;;;1.90;;
6821;SDS011;3449;48.728;8.968;2022-11-15T09:53:52;6.73;;;3.27;;
6821;SDS011;3449;48.728;8.968;2022-11-15T09:56:32;6.77;;;2.23;;
6821;SDS011;3449;48.728;8.968;2022-11-15T09:59:07;3.90;;;2.03;;
6821;SDS011;3449;48.728;8.968;2022-11-15T10:01:44;5.17;;;2.20;;
6821;SDS011;3449;48.728;8.968;2022-11-15T10:04:16;2.90;;;2.20;;
6821;SDS011;3449;48.728;8.968;2022-11-15T10:06:46;4.13;;;2.20;;
6821;SDS011;3449;48.728;8.968;2022-11-15T10:09:17;3.40;;;2.47;;
6821;SDS011;3449;48.728;8.968;2022-11-15T10:11:49;2.43;;;2.20;;
6821;SDS011;3449;48.728;8.968;2022-11-15T10:14:18;2.30;;;1.90;;
6821;SDS011;3449;48.728;8.968;2022-11-15T10:17:03;4.80;;;2.30;;
6821;SDS011;3449;48.728;8.968;2022-11-15T10:19:54;4.60;;;2.13;;
6821;SDS011;3449;48.728;8.968;2022-11-15T10:22:28;2.80;;;2.03;;
6821;SDS011;3449;48.728;8.968;2022-11-15T10:25:10;3.20;;;1.90;;
6821;SDS011;3449;48.728;8.968;2022-11-15T10:27:42;3.30;;;1.90;;
6821;SDS011;3449;48.728;8.968;2022-11-15T10:30:14;5.30;;;2.47;;
6821;SDS011;3449;48.728;8.968;2022-11-15T10:32:42;1.70;;;1.60;;
6821;SDS011;3449;48.728;8.968;2022-11-15T10:35:18;2.93;;;2.07;;
6821;SDS011;3449;48.728;8.968;2022-11-15T10:37:47;3.93;;;1.97;;
6821;SDS011;3449;48.728;8.968;2022-11-15T10:40:15;7.70;;;1.97;;
6821;SDS011;3449;48.728;8.968;2022-11-15T10:42:45;4.27;;;2.17;;
6821;SDS011;3449;48.728;8.968;2022-11-15T10:45:23;4.10;;;2.13;;
6821;SDS011;3449;48.728;8.968;2022-11-15T10:47:53;5.17;;;2.27;;
6821;SDS011;3449;48.728;8.968;2022-11-15T10:50:29;3.60;;;1.90;;
6821;SDS011;3449;48.728;8.968;2022-11-15T10:52:57;5.23;;;2.70;;
6821;SDS011;3449;48.728;8.968;2022-11-15T10:55:28;4.10;;;2.67;;
6821;SDS011;3449;48.728;8.968;2022-11-15T10:58:03;2.10;;;1.83;;
6821;SDS011;3449;48.728;8.968;2022-11-15T11:00:34;4.27;;;2.77;;
6821;SDS011;3449;48.728;8.968;2022-11-15T11:03:04;5.13;;;1.97;;
6821;SDS011;3449;48.728;8.968;2022-11-15T11:05:33;3.93;;;2.17;;
6821;SDS011;3449;48.728;8.968;2022-11-15T11:08:03;5.10;;;2.03;;
6821;SDS011;3449;48.728;8.968;2022-11-15T11:10:31;3.13;;;1.73;;
6821;SDS011;3449;48.728;8.968;2022-11-15T11:13:12;1.70;;;1.60;;
6821;SDS011;3449;48.728;8.968;2022-11-15T11:15:41;5.10;;;2.20;;
6821;SDS011;3449;48.728;8.968;2022-11-15T11:18:14;1.70;;;1.30;;
6821;SDS011;3449;48.728;8.968;2022-11-15T11:20:50;3.83;;;1.60;;
6821;SDS011;3449;48.728;8.968;2022-11-15T11:23:36;2.23;;;1.37;;
6821;SDS011;3449;48.728;8.968;2022-11-15T11:26:15;1.93;;;1.37;;
6821;SDS011;3449;48.728;8.968;2022-11-15T11:29:08;5.13;;;1.60;;
6821;SDS011;3449;48.728;8.968;2022-11-15T11:31:48;2.87;;;2.07;;
6821;SDS011;3449;48.728;8.968;2022-11-15T11:34:27;5.33;;;1.77;;
6821;SDS011;3449;48.728;8.968;2022-11-15T11:37:07;2.10;;;1.40;;
6821;SDS011;3449;48.728;8.968;2022-11-15T11:39:42;1.80;;;1.40;;
6821;SDS011;3449;48.728;8.968;2022-11-15T11:42:23;3.43;;;1.87;;
6821;SDS011;3449;48.728;8.968;2022-11-15T11:45:00;2.17;;;1.40;;
6821;SDS011;3449;48.728;8.968;2022-11-15T11:47:40;4.50;;;2.17;;
6821;SDS011;3449;48.728;8.968;2022-11-15T11:50:13;3.30;;;2.20;;
6821;SDS011;3449;48.728;8.968;2022-11-15T11:52:44;4.63;;;2.10;;
6821;SDS011;3449;48.728;8.968;2022-11-15T11:55:21;2.80;;;1.77;;
6821;SDS011;3449;48.728;8.968;2022-11-15T11:57:53;2.10;;;1.67;;
6821;SDS011;3449;48.728;8.968;2022-11-15T12:00:28;2.07;;;1.70;;
6821;SDS011;3449;48.728;8.968;2022-11-15T12:03:04;1.80;;;1.30;;
6821;SDS011;3449;48.728;8.968;2022-11-15T12:05:39;5.80;;;2.10;;
6821;SDS011;3449;48.728;8.968;2022-11-15T12:08:15;3.07;;;1.60;;
6821;SDS011;3449;48.728;8.968;2022-11-15T12:10:52;2.97;;;1.80;;
6821;SDS011;3449;48.728;8.968;2022-11-15T12:13:29;2.90;;;1.70;;
6821;SDS011;3449;48.728;8.968;2022-11-15T12:16:03;3.10;;;1.57;;
6821;SDS011;3449;48.728;8.968;2022-11-15T12:18:38;2.80;;;1.27;;
6821;SDS011;3449;48.728;8.968;2022-11-15T12:21:06;5.40;;;1.80;;
6821;SDS011;3449;48.728;8.968;2022-11-15T12:23:43;1.90;;;1.70;;
6821;SDS011;3449;48.728;8.968;2022-11-15T12:26:16;3.40;;;1.53;;
6821;SDS011;3449;48.728;8.968;2022-11-15T12:28:49;2.43;;;2.17;;
6821;SDS011;3449;48.728;8.968;2022-11-15T12:31:22;5.50;;;1.73;;
6821;SDS011;3449;48.728;8.968;2022-11-15T12:33:56;2.97;;;2.23;;
6821;SDS011;3449;48.728;8.968;2022-11-15T12:36:30;2.77;;;1.73;;
6821;SDS011;3449;48.728;8.968;2022-11-15T12:39:02;3.60;;;1.70;;
6821;SDS011;3449;48.728;8.968;2022-11-15T12:41:31;3.03;;;2.23;;
6821;SDS011;3449;48.728;8.968;2022-11-15T12:43:59;3.53;;;1.80;;
6821;SDS011;3449;48.728;8.968;2022-11-15T12:49:44;3.37;;;1.80;;
6821;SDS011;3449;48.728;8.968;2022-11-15T12:52:12;9.00;;;2.67;;
6821;SDS011;3449;48.728;8.968;2022-11-15T12:57:34;4.00;;;2.73;;
6821;SDS011;3449;48.728;8.968;2022-11-15T13:03:15;3.83;;;2.43;;
6821;SDS011;3449;48.728;8.968;2022-11-15T13:06:00;6.37;;;2.47;;
6821;SDS011;3449;48.728;8.968;2022-11-15T13:08:43;9.50;;;2.10;;
6821;SDS011;3449;48.728;8.968;2022-11-15T13:17:16;6.40;;;3.90;;
6821;SDS011;3449;48.728;8.968;2022-11-15T13:19:58;8.90;;;3.30;;
6821;SDS011;3449;48.728;8.968;2022-11-15T13:22:37;9.00;;;4.17;;
6821;SDS011;3449;48.728;8.968;2022-11-15T13:25:19;5.97;;;2.60;;
6821;SDS011;3449;48.728;8.968;2022-11-15T13:27:54;6.03;;;3.80;;
6821;SDS011;3449;48.728;8.968;2022-11-15T13:30:23;11.40;;;3.97;;
6821;SDS011;3449;48.728;8.968;2022-11-15T13:32:51;7.07;;;3.93;;
6821;SDS011;3449;48.728;8.968;2022-11-15T13:35:20;7.03;;;3.57;;
6821;SDS011;3449;48.728;8.968;2022-11-15T13:37:50;6.27;;;3.00;;
6821;SDS011;3449;48.728;8.968;2022-11-15T13:40:20;13.80;;;5.57;;
6821;SDS011;3449;48.728;8.968;2022-11-15T13:42:49;6.47;;;3.70;;
6821;SDS011;3449;48.728;8.968;2022-11-15T13:45:18;5.00;;;2.90;;
6821;SDS011;3449;48.728;8.968;2022-11-15T13:47:50;5.60;;;3.13;;
6821;SDS011;3449;48.728;8.968;2022-11-15T13:50:20;5.90;;;2.73;;
6821;SDS011;3449;48.728;8.968;2022-11-15T13:52:52;5.37;;;2.70;;
6821;SDS011;3449;48.728;8.968;2022-11-15T13:55:22;7.23;;;2.80;;
6821;SDS011;3449;48.728;8.968;2022-11-15T13:57:51;3.70;;;1.70;;
6821;SDS011;3449;48.728;8.968;2022-11-15T14:00:25;2.87;;;2.00;;
6821;SDS011;3449;48.728;8.968;2022-11-15T14:02:56;6.30;;;3.77;;
6821;SDS011;3449;48.728;8.968;2022-11-15T14:05:30;9.17;;;6.73;;
6821;SDS011;3449;48.728;8.968;2022-11-15T14:07:59;7.50;;;2.60;;
6821;SDS011;3449;48.728;8.968;2022-11-15T14:10:29;6.53;;;2.20;;
6821;SDS011;3449;48.728;8.968;2022-11-15T14:12:57;3.63;;;2.50;;
6821;SDS011;3449;48.728;8.968;2022-11-15T14:15:27;3.50;;;1.93;;
6821;SDS011;3449;48.728;8.968;2022-11-15T14:17:56;3.27;;;2.07;;
6821;SDS011;3449;48.728;8.968;2022-11-15T14:20:26;2.53;;;1.67;;
6821;SDS011;3449;48.728;8.968;2022-11-15T14:22:58;1.47;;;1.37;;
6821;SDS011;3449;48.728;8.968;2022-11-15T14:25:27;1.60;;;1.50;;
6821;SDS011;3449;48.728;8.968;2022-11-15T14:28:10;2.00;;;1.80;;
6821;SDS011;3449;48.728;8.968;2022-11-15T14:30:53;2.90;;;1.67;;
6821;SDS011;3449;48.728;8.968;2022-11-15T14:33:22;3.40;;;1.80;;
6821;SDS011;3449;48.728;8.968;2022-11-15T14:35:53;2.07;;;1.60;;
6821;SDS011;3449;48.728;8.968;2022-11-15T14:38:23;1.80;;;1.30;;
6821;SDS011;3449;48.728;8.968;2022-11-15T14:40:50;2.40;;;1.43;;
6821;SDS011;3449;48.728;8.968;2022-11-15T14:43:18;4.03;;;1.87;;
6821;SDS011;3449;48.728;8.968;2022-11-15T14:45:45;12.50;;;1.70;;
6821;SDS011;3449;48.728;8.968;2022-11-15T14:48:12;4.93;;;2.47;;
6821;SDS011;3449;48.728;8.968;2022-11-15T14:50:39;9.60;;;2.37;;
6821;SDS011;3449;48.728;8.968;2022-11-15T14:53:06;2.63;;;1.70;;
6821;SDS011;3449;48.728;8.968;2022-11-15T14:55:39;1.87;;;1.63;;
6821;SDS011;3449;48.728;8.968;2022-11-15T14:58:06;2.93;;;1.97;;
6821;SDS011;3449;48.728;8.968;2022-11-15T15:00:34;2.47;;;1.70;;
6821;SDS011;3449;48.728;8.968;2022-11-15T15:03:01;5.63;;;2.40;;
6821;SDS011;3449;48.728;8.968;2022-11-15T15:05:30;3.57;;;1.87;;
6821;SDS011;3449;48.728;8.968;2022-11-15T15:07:59;6.53;;;3.00;;
6821;SDS011;3449;48.728;8.968;2022-11-15T15:10:27;9.70;;;2.63;;
6821;SDS011;3449;48.728;8.968;2022-11-15T15:12:59;4.37;;;2.20;;
6821;SDS011;3449;48.728;8.968;2022-11-15T15:15:29;4.60;;;2.10;;
6821;SDS011;3449;48.728;8.968;2022-11-15T15:17:59;4.43;;;2.60;;
6821;SDS011;3449;48.728;8.968;2022-11-15T15:20:26;8.03;;;3.10;;
6821;SDS011;3449;48.728;8.968;2022-11-15T15:22:53;10.67;;;2.40;;
6821;SDS011;3449;48.728;8.968;2022-11-15T15:25:22;6.10;;;2.60;;
6821;SDS011;3449;48.728;8.968;2022-11-15T15:27:52;17.77;;;9.40;;
6821;SDS011;3449;48.728;8.968;2022-11-15T15:30:20;5.23;;;3.60;;
6821;SDS011;3449;48.728;8.968;2022-11-15T15:32:48;8.23;;;2.60;;
6821;SDS011;3449;48.728;8.968;2022-11-15T15:35:15;2.50;;;1.53;;
6821;SDS011;3449;48.728;8.968;2022-11-15T15:37:43;5.27;;;2.30;;
6821;SDS011;3449;48.728;8.968;2022-11-15T15:40:13;2.00;;;1.43;;
6821;SDS011;3449;48.728;8.968;2022-11-15T15:42:42;10.33;;;2.07;;
6821;SDS011;3449;48.728;8.968;2022-11-15T15:45:09;2.23;;;1.80;;
6821;SDS011;3449;48.728;8.968;2022-11-15T15:47:38;7.03;;;2.33;;
6821;SDS011;3449;48.728;8.968;2022-11-15T15:50:11;6.50;;;1.80;;
6821;SDS011;3449;48.728;8.968;2022-11-15T15:52:46;1.87;;;1.60;;
6821;SDS011;3449;48.728;8.968;2022-11-15T15:55:13;7.60;;;1.87;;
6821;SDS011;3449;48.728;8.968;2022-11-15T15:57:40;8.67;;;2.50;;